createdAt,value
2018-04-27T00:00:51.534Z,93.50
2018-04-27T00:03:18.421Z,93.40
2018-04-27T00:05:44.610Z,93.40
2018-04-27T00:08:10.777Z,93.10
2018-04-27T00:10:37.047Z,93.00
2018-04-27T00:13:03.309Z,92.10
2018-04-27T00:15:29.516Z,91.90
2018-04-27T00:17:55.834Z,91.90
2018-04-27T00:20:21.970Z,93.00
2018-04-27T00:22:48.114Z,91.90
2018-04-27T00:25:15.108Z,92.20
2018-04-27T00:27:41.295Z,92.20
2018-04-27T00:30:07.442Z,91.90
2018-04-27T00:32:33.714Z,91.70
2018-04-27T00:34:59.857Z,92.10
2018-04-27T00:37:25.989Z,92.40
2018-04-27T00:39:52.121Z,91.60
2018-04-27T00:42:18.318Z,91.50
2018-04-27T00:44:44.558Z,91.40
2018-04-27T00:47:11.421Z,91.50
2018-04-27T00:49:37.602Z,91.50
2018-04-27T00:52:03.725Z,91.60
2018-04-27T00:54:30.038Z,91.30
2018-04-27T00:56:56.183Z,91.50
2018-04-27T00:59:22.425Z,91.30
2018-04-27T01:01:49.310Z,91.40
2018-04-27T01:04:15.457Z,91.40
2018-04-27T01:06:42.761Z,91.70
2018-04-27T01:09:09.637Z,91.70
2018-04-27T01:11:35.751Z,91.70
2018-04-27T01:14:01.913Z,92.00
2018-04-27T01:16:28.061Z,92.30
2018-04-27T01:18:54.223Z,92.10
2018-04-27T01:21:21.161Z,92.00
2018-04-27T01:23:47.294Z,92.00
2018-04-27T01:26:13.423Z,91.70
2018-04-27T01:28:39.585Z,91.80
2018-04-27T01:31:06.470Z,92.10
2018-04-27T01:33:32.601Z,92.10
2018-04-27T01:35:58.812Z,92.20
2018-04-27T01:38:24.969Z,91.30
2018-04-27T01:40:51.105Z,92.60
2018-04-27T01:43:17.227Z,92.80
2018-04-27T01:45:43.405Z,92.40
2018-04-27T01:48:09.557Z,92.40
2018-04-27T01:50:35.708Z,91.80
2018-04-27T01:53:01.861Z,92.90
2018-04-27T01:55:27.984Z,92.80
2018-04-27T01:57:54.130Z,91.70
2018-04-27T02:00:20.267Z,92.80
2018-04-27T02:02:46.418Z,92.40
2018-04-27T02:05:12.832Z,92.20
2018-04-27T02:07:39.170Z,92.40
2018-04-27T02:10:05.374Z,91.90
2018-04-27T02:12:31.525Z,92.60
2018-04-27T02:14:57.662Z,92.70
2018-04-27T02:17:23.803Z,92.60
2018-04-27T02:19:49.953Z,91.90
2018-04-27T02:22:16.093Z,92.20
2018-04-27T02:24:43.042Z,92.60
2018-04-27T02:27:10.087Z,92.70
2018-04-27T02:29:36.966Z,93.10
2018-04-27T02:32:03.849Z,93.00
2018-04-27T02:34:30.031Z,93.00
2018-04-27T02:36:56.303Z,93.00
2018-04-27T02:39:22.426Z,93.20
2018-04-27T02:41:48.545Z,93.00
2018-04-27T02:44:15.413Z,93.50
2018-04-27T02:46:41.555Z,93.40
2018-04-27T02:49:07.690Z,93.50
2018-04-27T02:51:33.965Z,93.50
2018-04-27T02:54:00.271Z,93.10
2018-04-27T02:56:26.474Z,93.40
2018-04-27T02:58:53.450Z,94.00
2018-04-27T03:01:19.638Z,94.00
2018-04-27T03:03:45.885Z,93.60
2018-04-27T03:06:12.085Z,93.60
2018-04-27T03:08:38.351Z,93.70
2018-04-27T03:11:04.466Z,93.70
2018-04-27T03:13:31.342Z,93.50
2018-04-27T03:15:57.513Z,93.40
2018-04-27T03:18:23.702Z,93.90
2018-04-27T03:20:50.730Z,93.90
2018-04-27T03:23:38.739Z,93.90
2018-04-27T03:26:04.933Z,94.00
2018-04-27T03:28:31.718Z,94.20
2018-04-27T03:31:00.051Z,94.20
2018-04-27T03:33:26.161Z,93.60
2018-04-27T03:35:52.326Z,94.40
2018-04-27T03:38:18.446Z,94.30
2018-04-27T03:40:44.590Z,94.20
2018-04-27T03:43:10.713Z,94.50
2018-04-27T03:45:37.054Z,94.20
2018-04-27T03:48:03.221Z,94.70
2018-04-27T03:50:29.379Z,94.10
2018-04-27T03:52:56.230Z,93.40
2018-04-27T03:55:22.353Z,93.30
2018-04-27T03:57:49.374Z,94.20
2018-04-27T04:00:28.185Z,94.10
2018-04-27T04:03:06.390Z,94.50
2018-04-27T04:05:32.664Z,93.50
2018-04-27T04:07:58.813Z,94.30
2018-04-27T04:10:25.015Z,93.90
2018-04-27T04:12:51.162Z,94.00
2018-04-27T04:15:17.306Z,94.30
2018-04-27T04:17:43.443Z,94.30
2018-04-27T04:20:09.570Z,94.30
2018-04-27T04:22:35.689Z,95.00
2018-04-27T04:25:01.815Z,95.00
2018-04-27T04:27:28.010Z,94.90
2018-04-27T04:29:54.156Z,94.70
2018-04-27T04:32:20.348Z,94.70
2018-04-27T04:34:47.161Z,94.30
2018-04-27T04:37:13.470Z,94.30
2018-04-27T04:39:40.358Z,94.50
2018-04-27T04:42:07.347Z,94.70
2018-04-27T04:44:33.595Z,94.60
2018-04-27T04:46:59.917Z,94.50
2018-04-27T04:49:26.817Z,94.20
2018-04-27T04:51:53.005Z,94.10
2018-04-27T04:54:19.173Z,94.70
2018-04-27T04:56:45.374Z,94.80
2018-04-27T04:59:11.577Z,94.70
2018-04-27T05:01:37.695Z,94.40
2018-04-27T05:04:03.842Z,94.00
2018-04-27T05:06:29.974Z,94.60
2018-04-27T05:08:56.639Z,93.70
2018-04-27T05:11:22.791Z,92.60
2018-04-27T05:13:48.991Z,93.80
2018-04-27T05:16:15.147Z,94.30
2018-04-27T05:18:52.549Z,94.20
2018-04-27T05:21:18.723Z,93.50
2018-04-27T05:23:45.601Z,92.90
2018-04-27T05:26:11.766Z,92.80
2018-04-27T05:28:37.909Z,92.30
2018-04-27T05:31:16.386Z,92.80
2018-04-27T05:33:42.577Z,93.90
2018-04-27T05:36:08.725Z,93.30
2018-04-27T05:38:35.698Z,92.30
2018-04-27T05:41:01.846Z,92.30
2018-04-27T05:43:27.994Z,92.10
2018-04-27T05:45:54.149Z,92.70
2018-04-27T05:48:20.340Z,92.60
2018-04-27T05:50:46.519Z,93.00
2018-04-27T05:53:12.706Z,92.20
2018-04-27T05:55:38.897Z,92.40
2018-04-27T05:58:05.009Z,91.40
2018-04-27T06:00:31.185Z,91.40
2018-04-27T06:02:57.353Z,90.90
2018-04-27T06:05:23.537Z,89.50
2018-04-27T06:07:49.848Z,88.40
2018-04-27T06:10:16.004Z,90.40
2018-04-27T06:12:42.225Z,89.10
2018-04-27T06:15:08.615Z,86.50
2018-04-27T06:17:35.476Z,87.50
2018-04-27T06:20:01.715Z,87.40
2018-04-27T06:22:27.853Z,85.50
2018-04-27T06:24:54.007Z,84.10
2018-04-27T06:27:20.150Z,83.30
2018-04-27T06:29:46.325Z,83.10
2018-04-27T06:32:12.513Z,84.70
2018-04-27T06:34:38.645Z,83.40
2018-04-27T06:37:04.787Z,83.70
2018-04-27T06:39:31.029Z,83.10
2018-04-27T06:41:57.137Z,84.80
2018-04-27T06:44:23.384Z,81.40
2018-04-27T06:46:49.575Z,82.00
2018-04-27T06:49:15.708Z,81.30
2018-04-27T06:51:42.046Z,81.20
2018-04-27T06:54:08.250Z,81.30
2018-04-27T06:56:34.511Z,80.60
2018-04-27T06:59:00.665Z,82.00
2018-04-27T07:01:26.809Z,81.80
2018-04-27T07:03:53.026Z,81.40
2018-04-27T07:06:19.189Z,81.30
2018-04-27T07:08:45.347Z,82.30
2018-04-27T07:11:11.493Z,81.70
2018-04-27T07:13:38.413Z,80.40
2018-04-27T07:16:04.529Z,80.40
2018-04-27T07:18:30.795Z,79.70
2018-04-27T07:20:57.017Z,81.70
2018-04-27T07:23:23.146Z,81.00
2018-04-27T07:25:49.380Z,81.70
2018-04-27T07:28:15.503Z,79.70
2018-04-27T07:30:41.661Z,79.00
2018-04-27T07:33:07.853Z,78.90
2018-04-27T07:35:34.052Z,79.30
2018-04-27T07:38:00.202Z,78.70
2018-04-27T07:40:27.094Z,77.40
2018-04-27T07:42:53.286Z,77.40
2018-04-27T07:45:19.847Z,76.70
2018-04-27T07:47:45.914Z,77.20
2018-04-27T07:50:12.338Z,77.40
2018-04-27T07:52:38.542Z,77.20
2018-04-27T07:55:04.706Z,77.60
2018-04-27T07:57:30.922Z,77.80
2018-04-27T07:59:57.211Z,77.00
2018-04-27T08:02:24.226Z,75.60
2018-04-27T08:04:51.126Z,74.80
2018-04-27T08:07:17.324Z,74.90
2018-04-27T08:09:43.485Z,73.40
2018-04-27T08:12:09.712Z,73.10
2018-04-27T08:14:35.994Z,73.40
2018-04-27T08:17:02.174Z,72.00
2018-04-27T08:19:28.367Z,72.20
2018-04-27T08:21:54.529Z,73.40
2018-04-27T08:24:20.710Z,71.40
2018-04-27T08:26:46.907Z,72.20
2018-04-27T08:29:13.088Z,71.90
2018-04-27T08:31:39.273Z,72.30
2018-04-27T08:34:06.257Z,71.80
2018-04-27T08:36:32.413Z,71.70
2018-04-27T08:38:58.539Z,69.10
2018-04-27T08:41:24.710Z,70.10
2018-04-27T08:43:51.298Z,68.10
2018-04-27T08:46:17.406Z,71.40
2018-04-27T08:48:43.530Z,70.20
2018-04-27T08:51:09.681Z,71.10
2018-04-27T08:53:35.833Z,69.30
2018-04-27T08:56:01.989Z,67.30
2018-04-27T08:58:28.116Z,70.30
2018-04-27T09:00:54.266Z,65.80
2018-04-27T09:03:20.413Z,66.60
2018-04-27T09:05:46.620Z,66.20
2018-04-27T09:08:12.899Z,62.60
2018-04-27T09:10:39.126Z,64.70
2018-04-27T09:13:06.181Z,66.60
2018-04-27T09:15:32.346Z,66.30
2018-04-27T09:18:00.521Z,63.50
2018-04-27T09:20:27.442Z,60.10
2018-04-27T09:22:53.606Z,60.40
2018-04-27T09:25:19.853Z,64.70
2018-04-27T09:27:46.013Z,60.90
2018-04-27T09:30:13.097Z,59.00
2018-04-27T09:32:40.024Z,59.70
2018-04-27T09:35:06.326Z,59.60
2018-04-27T09:37:32.534Z,59.60
2018-04-27T09:39:58.683Z,62.40
2018-04-27T09:42:24.824Z,61.50
2018-04-27T09:44:51.074Z,58.90
2018-04-27T09:47:17.230Z,60.00
2018-04-27T09:49:43.509Z,57.90
2018-04-27T09:52:09.766Z,56.90
2018-04-27T09:54:35.905Z,59.70
2018-04-27T09:57:02.060Z,58.20
2018-04-27T09:59:28.239Z,53.20
2018-04-27T10:01:54.453Z,56.00
2018-04-27T10:04:20.578Z,52.90
2018-04-27T10:06:46.794Z,56.20
2018-04-27T10:09:13.069Z,55.30
2018-04-27T10:11:39.229Z,55.00
2018-04-27T10:14:05.367Z,56.60
2018-04-27T10:16:32.363Z,58.00
2018-04-27T10:18:58.535Z,57.80
2018-04-27T10:21:24.956Z,54.50
2018-04-27T10:23:51.107Z,54.60
2018-04-27T10:26:20.269Z,54.50
2018-04-27T10:28:46.526Z,57.10
2018-04-27T10:31:12.674Z,55.90
2018-04-27T10:33:39.548Z,53.60
2018-04-27T10:36:06.437Z,56.40
2018-04-27T10:38:32.765Z,56.40
2018-04-27T10:40:58.894Z,54.40
2018-04-27T10:43:25.046Z,55.60
2018-04-27T10:45:51.299Z,51.40
2018-04-27T10:48:18.214Z,56.20
2018-04-27T10:50:44.545Z,56.50
2018-04-27T10:53:10.706Z,52.90
2018-04-27T10:55:37.659Z,49.20
2018-04-27T10:58:04.577Z,48.00
2018-04-27T11:00:30.791Z,47.80
2018-04-27T11:02:56.962Z,52.10
2018-04-27T11:05:23.865Z,50.80
2018-04-27T11:07:50.026Z,50.70
2018-04-27T11:10:16.173Z,49.40
2018-04-27T11:12:43.138Z,53.20
2018-04-27T11:15:09.342Z,53.30
2018-04-27T11:17:35.619Z,55.30
2018-04-27T11:20:01.783Z,51.40
2018-04-27T11:22:27.930Z,52.60
2018-04-27T11:24:54.157Z,52.20
2018-04-27T11:27:20.402Z,54.90
2018-04-27T11:29:46.554Z,51.60
2018-04-27T11:32:12.681Z,50.40
2018-04-27T11:34:39.582Z,51.90
2018-04-27T11:37:05.769Z,52.50
2018-04-27T11:39:31.981Z,55.90
2018-04-27T11:41:58.845Z,55.00
2018-04-27T11:44:25.868Z,51.10
2018-04-27T11:46:52.014Z,51.40
2018-04-27T11:49:18.894Z,52.10
2018-04-27T11:51:45.211Z,51.90
2018-04-27T11:54:11.436Z,51.70
2018-04-27T11:56:37.674Z,53.30
2018-04-27T11:59:03.852Z,52.70
2018-04-27T12:01:30.113Z,53.60
2018-04-27T12:03:56.290Z,53.30
2018-04-27T12:06:22.472Z,52.60
2018-04-27T12:08:48.722Z,51.90
2018-04-27T12:11:15.727Z,49.10
2018-04-27T12:13:41.900Z,48.90
2018-04-27T12:16:08.107Z,50.60
2018-04-27T12:18:34.717Z,50.00
2018-04-27T12:21:00.860Z,49.60
2018-04-27T12:23:27.107Z,49.20
2018-04-27T12:25:53.321Z,53.20
2018-04-27T12:28:19.528Z,53.60
2018-04-27T12:30:46.456Z,52.90
2018-04-27T12:33:12.726Z,52.90
2018-04-27T12:35:39.649Z,52.50
2018-04-27T12:38:05.981Z,52.80
2018-04-27T12:40:32.139Z,50.20
2018-04-27T12:42:58.316Z,50.30
2018-04-27T12:45:24.683Z,50.20
2018-04-27T12:47:50.958Z,50.80
2018-04-27T12:50:17.137Z,49.70
2018-04-27T12:52:43.390Z,49.10
2018-04-27T12:55:09.559Z,50.20
2018-04-27T12:57:36.542Z,50.50
2018-04-27T13:00:02.705Z,50.70
2018-04-27T13:02:29.158Z,48.90
2018-04-27T13:04:55.312Z,49.30
2018-04-27T13:07:21.439Z,50.50
2018-04-27T13:09:47.659Z,50.50
2018-04-27T13:12:14.565Z,51.00
2018-04-27T13:14:40.741Z,50.60
2018-04-27T13:17:07.698Z,50.90
2018-04-27T13:19:35.187Z,50.20
2018-04-27T13:22:01.319Z,50.20
2018-04-27T13:24:27.485Z,50.80
2018-04-27T13:26:53.721Z,51.60
2018-04-27T13:29:19.862Z,50.60
2018-04-27T13:31:46.802Z,50.60
2018-04-27T13:34:13.033Z,50.60
2018-04-27T13:36:39.157Z,52.10
2018-04-27T13:39:05.317Z,50.70
2018-04-27T13:41:32.269Z,50.80
2018-04-27T13:43:58.831Z,50.80
2018-04-27T13:46:25.707Z,49.70
2018-04-27T13:48:51.918Z,49.50
2018-04-27T13:51:18.070Z,50.50
2018-04-27T13:53:44.330Z,49.10
2018-04-27T13:56:10.609Z,52.00
2018-04-27T13:58:36.801Z,51.30
2018-04-27T14:01:03.735Z,49.80
2018-04-27T14:03:29.906Z,49.50
2018-04-27T14:05:56.115Z,51.20
2018-04-27T14:08:22.318Z,51.90
2018-04-27T14:10:48.490Z,49.40
2018-04-27T14:13:14.697Z,46.80
2018-04-27T14:15:40.916Z,47.50
2018-04-27T14:18:08.005Z,44.70
2018-04-27T14:20:34.808Z,44.60
2018-04-27T14:23:00.961Z,42.40
2018-04-27T14:25:27.157Z,47.60
2018-04-27T14:27:53.750Z,45.00
2018-04-27T14:30:21.117Z,48.40
2018-04-27T14:32:48.117Z,46.10
2018-04-27T14:35:14.627Z,46.10
2018-04-27T14:37:41.048Z,44.40
2018-04-27T14:40:07.250Z,47.30
2018-04-27T14:42:33.599Z,45.90
2018-04-27T14:45:00.526Z,49.10
2018-04-27T14:47:27.162Z,48.90
2018-04-27T14:49:53.417Z,45.80
2018-04-27T14:52:19.665Z,45.90
2018-04-27T14:54:46.737Z,46.40
2018-04-27T14:57:13.001Z,46.20
2018-04-27T14:59:39.402Z,46.00
2018-04-27T15:02:06.333Z,47.80
2018-04-27T15:04:33.625Z,47.10
2018-04-27T15:06:59.972Z,47.20
2018-04-27T15:09:26.155Z,46.60
2018-04-27T15:11:54.118Z,48.10
2018-04-27T15:14:21.038Z,50.30
2018-04-27T15:16:47.223Z,50.20
2018-04-27T15:19:13.421Z,45.00
2018-04-27T15:21:39.781Z,46.30
2018-04-27T15:24:06.154Z,48.70
2018-04-27T15:26:32.378Z,47.90
2018-04-27T15:28:58.614Z,47.30
2018-04-27T15:31:24.825Z,47.70
2018-04-27T15:33:51.191Z,47.30
2018-04-27T15:36:18.140Z,46.40
2018-04-27T15:38:44.413Z,46.20
2018-04-27T15:41:10.741Z,47.60
2018-04-27T15:43:37.752Z,48.80
2018-04-27T15:46:04.067Z,48.60
2018-04-27T15:48:30.241Z,51.70
2018-04-27T15:50:57.163Z,50.20
2018-04-27T15:53:24.400Z,50.10
2018-04-27T15:55:50.739Z,46.30
2018-04-27T15:58:16.936Z,49.30
2018-04-27T16:00:43.236Z,49.60
2018-04-27T16:03:10.399Z,53.50
2018-04-27T16:05:37.595Z,53.30
2018-04-27T16:08:06.752Z,52.40
2018-04-27T16:10:36.019Z,48.70
2018-04-27T16:16:21.805Z,50.60
2018-04-27T16:18:51.639Z,48.90
2018-04-27T16:21:18.243Z,47.30
2018-04-27T16:23:44.753Z,48.30
2018-04-27T16:26:16.763Z,48.90
2018-04-27T16:28:43.258Z,51.00
2018-04-27T16:31:09.624Z,51.00
2018-04-27T16:33:36.602Z,47.50
2018-04-27T16:36:02.956Z,47.50
2018-04-27T16:38:29.732Z,46.20
2018-04-27T16:40:56.935Z,48.30
2018-04-27T16:43:23.182Z,48.30
2018-04-27T16:45:49.905Z,48.40
2018-04-27T16:48:16.583Z,48.70
2018-04-27T16:50:42.847Z,48.60
2018-04-27T16:53:09.988Z,51.40
2018-04-27T16:55:42.638Z,51.10
2018-04-27T16:58:09.682Z,50.00
2018-04-27T17:00:35.925Z,49.90
2018-04-27T17:03:02.172Z,53.20
2018-04-27T17:05:29.145Z,52.20
2018-04-27T17:07:55.466Z,52.10
2018-04-27T17:10:21.763Z,50.60
2018-04-27T17:12:48.006Z,52.80
2018-04-27T17:15:15.391Z,54.40
2018-04-27T17:17:41.764Z,54.10
2018-04-27T17:20:08.000Z,50.50
2018-04-27T17:22:34.396Z,50.60
2018-04-27T17:25:00.583Z,50.10
2018-04-27T17:27:26.932Z,51.10
2018-04-27T17:29:53.180Z,51.60
2018-04-27T17:32:19.729Z,48.80
2018-04-27T17:34:45.977Z,49.20
2018-04-27T17:37:12.436Z,51.00
2018-04-27T17:39:38.622Z,52.00
2018-04-27T17:42:04.875Z,50.30
2018-04-27T17:44:31.229Z,51.40
2018-04-27T17:46:57.510Z,51.10
2018-04-27T17:49:23.792Z,51.40
2018-04-27T17:51:50.767Z,49.80
2018-04-27T17:54:17.113Z,50.10
2018-04-27T17:56:43.390Z,52.10
2018-04-27T17:59:09.672Z,53.60
2018-04-27T18:01:35.925Z,57.20
2018-04-27T18:04:02.172Z,52.20
2018-04-27T18:06:28.440Z,52.80
2018-04-27T18:08:54.700Z,52.10
2018-04-27T18:11:21.048Z,53.20
2018-04-27T18:13:47.295Z,54.00
2018-04-27T18:16:13.576Z,52.30
2018-04-27T18:18:39.840Z,54.10
2018-04-27T18:21:06.113Z,54.50
2018-04-27T18:23:33.076Z,55.90
2018-04-27T18:25:59.344Z,55.80
2018-04-27T18:28:25.701Z,55.70
2018-04-27T18:30:51.952Z,56.70
2018-04-27T18:33:18.202Z,56.60
2018-04-27T18:35:45.161Z,59.80
2018-04-27T18:38:11.503Z,59.70
2018-04-27T18:40:37.745Z,58.30
2018-04-27T18:43:04.001Z,58.30
2018-04-27T18:45:30.381Z,58.20
2018-04-27T18:47:56.624Z,59.00
2018-04-27T18:50:23.828Z,59.90
2018-04-27T18:52:50.870Z,59.50
2018-04-27T18:55:17.891Z,59.10
2018-04-27T18:57:44.204Z,59.10
2018-04-27T19:00:10.432Z,59.40
2018-04-27T19:02:36.788Z,59.90
2018-04-27T19:05:03.088Z,59.80
2018-04-27T19:07:29.324Z,59.70
2018-04-27T19:09:55.612Z,59.80
2018-04-27T19:12:22.609Z,61.40
2018-04-27T19:14:48.988Z,61.30
2018-04-27T19:17:16.006Z,60.60
2018-04-27T19:19:42.256Z,60.60
2018-04-27T19:22:09.240Z,62.20
2018-04-27T19:24:39.112Z,62.00
2018-04-27T19:27:05.359Z,63.10
2018-04-27T19:29:31.637Z,62.20
2018-04-27T19:31:57.944Z,63.10
2018-04-27T19:34:24.234Z,63.00
2018-04-27T19:36:50.620Z,63.70
2018-04-27T19:39:16.891Z,62.70
2018-04-27T19:41:43.157Z,62.90
2018-04-27T19:44:09.417Z,64.70
2018-04-27T19:46:35.823Z,64.70
2018-04-27T19:49:02.103Z,64.70
2018-04-27T19:51:28.376Z,64.70
2018-04-27T19:53:54.631Z,67.10
2018-04-27T19:56:20.891Z,64.80
2018-04-27T19:58:47.432Z,64.20
2018-04-27T20:01:14.150Z,67.70
2018-04-27T20:03:40.457Z,63.70
2018-04-27T20:06:06.699Z,64.70
2018-04-27T20:08:34.040Z,65.80
2018-04-27T20:11:00.666Z,65.90
2018-04-27T20:13:26.986Z,64.50
2018-04-27T20:15:57.098Z,67.20
2018-04-27T20:18:27.292Z,66.70
2018-04-27T20:20:55.161Z,66.60
2018-04-27T20:23:24.427Z,66.40
2018-04-27T20:25:50.743Z,66.80
2018-04-27T20:28:16.990Z,67.10
2018-04-27T20:30:43.315Z,69.00
2018-04-27T20:33:13.383Z,69.60
2018-04-27T20:35:39.712Z,71.00
2018-04-27T20:38:06.072Z,70.90
2018-04-27T20:40:33.069Z,70.80
2018-04-27T20:43:05.432Z,70.80
2018-04-27T20:45:31.722Z,69.60
2018-04-27T20:47:58.712Z,69.20
2018-04-27T20:50:25.079Z,69.20
2018-04-27T20:52:51.396Z,67.60
2018-04-27T20:55:17.665Z,67.00
2018-04-27T20:57:45.681Z,66.70
2018-04-27T21:00:11.952Z,66.30
2018-04-27T21:02:41.904Z,68.10
2018-04-27T21:05:08.198Z,68.20
2018-04-27T21:07:35.329Z,67.40
2018-04-27T21:10:01.575Z,67.40
2018-04-27T21:12:32.084Z,68.80
2018-04-27T21:14:58.334Z,68.90
2018-04-27T21:17:25.782Z,65.80
2018-04-27T21:19:52.090Z,65.80
2018-04-27T21:22:18.467Z,66.70
2018-04-27T21:24:44.857Z,66.30
2018-04-27T21:27:11.140Z,66.20
2018-04-27T21:29:37.400Z,67.10
2018-04-27T21:32:05.089Z,70.60
2018-04-27T21:34:31.372Z,66.40
2018-04-27T21:36:58.512Z,67.50
2018-04-27T21:39:28.870Z,67.50
2018-04-27T21:41:56.904Z,67.90
2018-04-27T21:44:29.972Z,68.40
2018-04-27T21:47:02.032Z,68.80
2018-04-27T21:49:29.037Z,71.30
2018-04-27T21:51:56.294Z,71.20
2018-04-27T21:54:23.443Z,68.80
2018-04-27T22:00:00.977Z,70.00
2018-04-27T22:02:27.993Z,70.10
2018-04-27T22:04:54.179Z,70.90
2018-04-27T22:07:23.285Z,68.60
2018-04-27T22:09:50.298Z,68.50
2018-04-27T22:12:17.517Z,67.40
2018-04-27T22:14:43.662Z,66.60
2018-04-27T22:17:09.809Z,67.60
2018-04-27T22:19:35.957Z,67.20
2018-04-27T22:22:02.120Z,66.70
2018-04-27T22:24:28.281Z,67.40
2018-04-27T22:26:55.239Z,67.60
2018-04-27T22:29:34.933Z,69.50
2018-04-27T22:32:06.672Z,67.80
2018-04-27T22:34:34.657Z,67.70
2018-04-27T22:37:00.846Z,69.00
2018-04-27T22:42:23.995Z,68.70
2018-04-27T22:45:12.821Z,70.60
2018-04-27T22:47:38.969Z,70.20
2018-04-27T22:50:05.283Z,69.20
2018-04-27T22:52:33.094Z,70.60
2018-04-27T22:55:00.046Z,70.20
2018-04-27T22:57:27.817Z,71.70
2018-04-27T22:59:55.721Z,72.70
2018-04-27T23:02:21.905Z,72.40
2018-04-27T23:04:52.926Z,70.90
2018-04-27T23:07:24.189Z,71.10
2018-04-27T23:09:50.382Z,70.40
2018-04-27T23:12:16.535Z,70.80
2018-04-27T23:14:42.677Z,73.60
2018-04-27T23:17:11.321Z,70.50
2018-04-27T23:19:44.237Z,70.70
2018-04-27T23:22:23.455Z,70.70
2018-04-27T23:24:50.733Z,72.50
2018-04-27T23:27:17.609Z,71.00
2018-04-27T23:29:43.767Z,70.80
2018-04-27T23:32:10.253Z,70.20
2018-04-27T23:34:36.585Z,70.80
2018-04-27T23:37:03.466Z,70.40
2018-04-27T23:39:29.678Z,70.20
2018-04-27T23:41:56.577Z,70.20
2018-04-27T23:44:22.856Z,70.20
2018-04-27T23:46:49.811Z,71.20
2018-04-27T23:49:15.973Z,71.10
2018-04-27T23:51:42.249Z,72.50
2018-04-27T23:54:09.236Z,71.30
2018-04-27T23:56:39.328Z,72.80
2018-04-27T23:59:05.489Z,73.40
